sensor_id;sensor_type;location;lat;lon;timestamp;pressure;altitude;pressure_sealevel;temperature;humidity
51315;BME280;58484;51.980;-0.234;2022-07-01T00:01:24;100623.16;;;11.50;74.72
51315;BME280;58484;51.980;-0.234;2022-07-01T00:03:50;100619.00;;;11.48;75.03
51315;BME280;58484;51.980;-0.234;2022-07-01T00:06:17;100615.66;;;11.46;74.19
51315;BME280;58484;51.980;-0.234;2022-07-01T00:08:43;100600.31;;;11.39;74.41
51315;BME280;58484;51.980;-0.234;2022-07-01T00:11:09;100605.75;;;11.46;74.11
51315;BME280;58484;51.980;-0.234;2022-07-01T00:13:35;100605.06;;;11.37;74.22
51315;BME280;58484;51.980;-0.234;2022-07-01T00:16:01;100613.78;;;11.39;74.47
51315;BME280;58484;51.980;-0.234;2022-07-01T00:18:27;100607.31;;;11.34;74.34
51315;BME280;58484;51.980;-0.234;2022-07-01T00:20:53;100617.47;;;11.38;74.06
51315;BME280;58484;51.980;-0.234;2022-07-01T00:23:19;100610.63;;;11.36;74.21
51315;BME280;58484;51.980;-0.234;2022-07-01T00:25:45;100600.03;;;11.28;74.68
51315;BME280;58484;51.980;-0.234;2022-07-01T00:28:11;100608.28;;;11.26;75.38
51315;BME280;58484;51.980;-0.234;2022-07-01T00:30:37;100624.09;;;11.36;75.13
51315;BME280;58484;51.980;-0.234;2022-07-01T00:33:03;100627.22;;;11.39;74.94
51315;BME280;58484;51.980;-0.234;2022-07-01T00:35:30;100609.19;;;11.33;75.16
51315;BME280;58484;51.980;-0.234;2022-07-01T00:37:56;100609.19;;;11.33;74.74
51315;BME280;58484;51.980;-0.234;2022-07-01T00:40:23;100626.69;;;11.51;74.31
51315;BME280;58484;51.980;-0.234;2022-07-01T00:42:49;100627.94;;;11.55;75.59
51315;BME280;58484;51.980;-0.234;2022-07-01T00:45:15;100617.63;;;11.58;74.08
51315;BME280;58484;51.980;-0.234;2022-07-01T00:47:42;100609.31;;;11.53;74.79
51315;BME280;58484;51.980;-0.234;2022-07-01T00:50:11;100618.66;;;11.57;74.99
51315;BME280;58484;51.980;-0.234;2022-07-01T00:52:38;100619.75;;;11.63;74.91
51315;BME280;58484;51.980;-0.234;2022-07-01T00:55:06;100623.31;;;11.70;74.43
51315;BME280;58484;51.980;-0.234;2022-07-01T00:57:35;100618.56;;;11.72;74.31
51315;BME280;58484;51.980;-0.234;2022-07-01T01:00:04;100606.41;;;11.83;73.94
51315;BME280;58484;51.980;-0.234;2022-07-01T01:02:30;100611.84;;;11.90;73.50
51315;BME280;58484;51.980;-0.234;2022-07-01T01:04:56;100605.44;;;11.91;73.94
51315;BME280;58484;51.980;-0.234;2022-07-01T01:07:22;100609.00;;;11.98;73.01
51315;BME280;58484;51.980;-0.234;2022-07-01T01:09:49;100605.09;;;12.00;73.19
51315;BME280;58484;51.980;-0.234;2022-07-01T01:12:15;100604.28;;;12.07;72.35
51315;BME280;58484;51.980;-0.234;2022-07-01T01:14:46;100599.94;;;12.06;72.85
51315;BME280;58484;51.980;-0.234;2022-07-01T01:17:12;100593.50;;;12.07;72.46
51315;BME280;58484;51.980;-0.234;2022-07-01T01:19:40;100547.97;;;11.70;74.02
51315;BME280;58484;51.980;-0.234;2022-07-01T01:22:06;100594.69;;;11.97;74.28
51315;BME280;58484;51.980;-0.234;2022-07-01T01:24:32;100603.38;;;11.93;74.77
51315;BME280;58484;51.980;-0.234;2022-07-01T01:26:57;100607.16;;;11.98;74.04
51315;BME280;58484;51.980;-0.234;2022-07-01T01:29:23;100590.47;;;11.81;75.01
51315;BME280;58484;51.980;-0.234;2022-07-01T01:31:49;100604.00;;;11.95;74.80
51315;BME280;58484;51.980;-0.234;2022-07-01T01:34:15;100612.53;;;11.98;74.18
51315;BME280;58484;51.980;-0.234;2022-07-01T01:36:41;100615.41;;;11.97;75.09
51315;BME280;58484;51.980;-0.234;2022-07-01T01:39:07;100615.22;;;11.98;74.46
51315;BME280;58484;51.980;-0.234;2022-07-01T01:41:37;100611.53;;;12.06;73.83
51315;BME280;58484;51.980;-0.234;2022-07-01T01:44:03;100620.00;;;12.03;74.45
51315;BME280;58484;51.980;-0.234;2022-07-01T01:46:29;100587.34;;;11.78;75.06
51315;BME280;58484;51.980;-0.234;2022-07-01T01:48:56;100598.69;;;11.73;76.44
51315;BME280;58484;51.980;-0.234;2022-07-01T01:51:22;100603.63;;;11.70;76.53
51315;BME280;58484;51.980;-0.234;2022-07-01T01:53:47;100603.03;;;11.74;76.43
51315;BME280;58484;51.980;-0.234;2022-07-01T01:56:13;100604.69;;;11.75;76.69
51315;BME280;58484;51.980;-0.234;2022-07-01T01:58:39;100584.41;;;11.73;75.60
51315;BME280;58484;51.980;-0.234;2022-07-01T02:01:11;100609.41;;;11.95;74.56
51315;BME280;58484;51.980;-0.234;2022-07-01T02:03:38;100604.78;;;11.89;76.00
51315;BME280;58484;51.980;-0.234;2022-07-01T02:06:05;100611.81;;;11.83;76.08
51315;BME280;58484;51.980;-0.234;2022-07-01T02:08:31;100602.84;;;11.76;76.85
51315;BME280;58484;51.980;-0.234;2022-07-01T02:10:58;100612.13;;;11.73;76.87
51315;BME280;58484;51.980;-0.234;2022-07-01T02:13:24;100592.22;;;11.61;77.01
51315;BME280;58484;51.980;-0.234;2022-07-01T02:15:49;100607.94;;;11.64;77.20
51315;BME280;58484;51.980;-0.234;2022-07-01T02:18:15;100605.84;;;11.59;77.71
51315;BME280;58484;51.980;-0.234;2022-07-01T02:20:42;100600.28;;;11.61;77.69
51315;BME280;58484;51.980;-0.234;2022-07-01T02:23:08;100617.75;;;11.78;76.90
51315;BME280;58484;51.980;-0.234;2022-07-01T02:25:34;100615.75;;;11.87;75.74
51315;BME280;58484;51.980;-0.234;2022-07-01T02:28:01;100575.06;;;11.69;75.52
51315;BME280;58484;51.980;-0.234;2022-07-01T02:30:27;100617.41;;;11.88;77.02
51315;BME280;58484;51.980;-0.234;2022-07-01T02:32:53;100619.25;;;11.88;76.70
51315;BME280;58484;51.980;-0.234;2022-07-01T02:35:19;100625.94;;;11.92;76.32
51315;BME280;58484;51.980;-0.234;2022-07-01T02:37:45;100617.22;;;11.90;76.52
51315;BME280;58484;51.980;-0.234;2022-07-01T02:40:11;100624.09;;;11.92;76.37
51315;BME280;58484;51.980;-0.234;2022-07-01T02:42:39;100627.44;;;12.01;76.14
51315;BME280;58484;51.980;-0.234;2022-07-01T02:45:06;100610.50;;;11.79;77.27
51315;BME280;58484;51.980;-0.234;2022-07-01T02:47:33;100613.06;;;11.87;76.46
51315;BME280;58484;51.980;-0.234;2022-07-01T02:49:59;100624.09;;;11.92;76.78
51315;BME280;58484;51.980;-0.234;2022-07-01T02:52:25;100631.31;;;11.92;76.34
51315;BME280;58484;51.980;-0.234;2022-07-01T02:54:51;100618.19;;;11.82;76.72
51315;BME280;58484;51.980;-0.234;2022-07-01T02:57:16;100629.41;;;11.86;77.19
51315;BME280;58484;51.980;-0.234;2022-07-01T02:59:42;100631.13;;;11.93;76.45
51315;BME280;58484;51.980;-0.234;2022-07-01T03:02:19;100647.31;;;12.00;76.15
51315;BME280;58484;51.980;-0.234;2022-07-01T03:04:47;100644.97;;;11.90;77.22
51315;BME280;58484;51.980;-0.234;2022-07-01T03:07:14;100635.97;;;11.76;77.86
51315;BME280;58484;51.980;-0.234;2022-07-01T03:09:41;100636.91;;;11.62;78.16
51315;BME280;58484;51.980;-0.234;2022-07-01T03:12:10;100651.59;;;11.66;79.50
51315;BME280;58484;51.980;-0.234;2022-07-01T03:14:59;100641.66;;;11.60;78.84
51315;BME280;58484;51.980;-0.234;2022-07-01T03:17:28;100661.75;;;11.64;79.67
51315;BME280;58484;51.980;-0.234;2022-07-01T03:19:55;100657.84;;;11.67;79.48
51315;BME280;58484;51.980;-0.234;2022-07-01T03:22:22;100656.16;;;11.66;79.99
51315;BME280;58484;51.980;-0.234;2022-07-01T03:24:49;100660.56;;;11.73;79.02
51315;BME280;58484;51.980;-0.234;2022-07-01T03:27:16;100659.78;;;11.79;78.39
51315;BME280;58484;51.980;-0.234;2022-07-01T03:29:42;100667.88;;;11.79;78.95
51315;BME280;58484;51.980;-0.234;2022-07-01T03:32:09;100671.97;;;11.75;79.74
51315;BME280;58484;51.980;-0.234;2022-07-01T03:34:37;100667.88;;;11.79;78.90
51315;BME280;58484;51.980;-0.234;2022-07-01T03:37:05;100666.03;;;11.87;77.96
51315;BME280;58484;51.980;-0.234;2022-07-01T03:39:31;100666.31;;;11.92;77.90
51315;BME280;58484;51.980;-0.234;2022-07-01T03:41:57;100629.72;;;11.69;78.36
51315;BME280;58484;51.980;-0.234;2022-07-01T03:44:23;100668.19;;;11.91;78.65
51315;BME280;58484;51.980;-0.234;2022-07-01T03:46:49;100665.53;;;11.98;77.14
51315;BME280;58484;51.980;-0.234;2022-07-01T03:49:14;100674.81;;;11.95;78.22
51315;BME280;58484;51.980;-0.234;2022-07-01T03:51:40;100669.56;;;11.87;78.90
51315;BME280;58484;51.980;-0.234;2022-07-01T03:54:06;100676.69;;;11.95;78.41
51315;BME280;58484;51.980;-0.234;2022-07-01T03:56:51;100658.19;;;11.85;78.45
51315;BME280;58484;51.980;-0.234;2022-07-01T03:59:17;100670.78;;;11.85;79.71
51315;BME280;58484;51.980;-0.234;2022-07-01T04:01:43;100666.56;;;11.75;80.49
51315;BME280;58484;51.980;-0.234;2022-07-01T04:04:09;100676.13;;;11.78;80.40
51315;BME280;58484;51.980;-0.234;2022-07-01T04:06:35;100682.59;;;11.84;80.68
51315;BME280;58484;51.980;-0.234;2022-07-01T04:09:02;100679.00;;;11.76;81.22
51315;BME280;58484;51.980;-0.234;2022-07-01T04:11:28;100673.44;;;11.78;80.57
51315;BME280;58484;51.980;-0.234;2022-07-01T04:13:54;100691.78;;;11.96;79.89
51315;BME280;58484;51.980;-0.234;2022-07-01T04:16:20;100684.94;;;11.93;79.46
51315;BME280;58484;51.980;-0.234;2022-07-01T04:18:46;100693.09;;;12.07;78.55
51315;BME280;58484;51.980;-0.234;2022-07-01T04:21:13;100681.88;;;11.96;80.25
51315;BME280;58484;51.980;-0.234;2022-07-01T04:23:58;100690.91;;;11.89;80.94
51315;BME280;58484;51.980;-0.234;2022-07-01T04:26:24;100699.09;;;12.02;79.42
51315;BME280;58484;51.980;-0.234;2022-07-01T04:28:51;100683.66;;;11.89;80.48
51315;BME280;58484;51.980;-0.234;2022-07-01T04:31:17;100653.28;;;11.67;81.15
51315;BME280;58484;51.980;-0.234;2022-07-01T04:33:44;100690.16;;;11.95;80.45
51315;BME280;58484;51.980;-0.234;2022-07-01T04:36:10;100701.00;;;12.08;79.70
51315;BME280;58484;51.980;-0.234;2022-07-01T04:38:36;100693.53;;;12.10;79.27
51315;BME280;58484;51.980;-0.234;2022-07-01T04:41:02;100710.19;;;12.20;78.85
51315;BME280;58484;51.980;-0.234;2022-07-01T04:43:47;100702.44;;;12.11;80.46
51315;BME280;58484;51.980;-0.234;2022-07-01T04:46:13;100707.88;;;12.17;79.30
51315;BME280;58484;51.980;-0.234;2022-07-01T04:48:39;100713.31;;;12.24;79.26
51315;BME280;58484;51.980;-0.234;2022-07-01T04:51:06;100705.00;;;12.19;79.35
51315;BME280;58484;51.980;-0.234;2022-07-01T04:53:31;100703.28;;;12.11;80.42
51315;BME280;58484;51.980;-0.234;2022-07-01T04:55:57;100704.06;;;12.05;80.94
51315;BME280;58484;51.980;-0.234;2022-07-01T04:58:23;100690.41;;;12.07;80.04
51315;BME280;58484;51.980;-0.234;2022-07-01T05:00:49;100702.31;;;12.19;80.28
51315;BME280;58484;51.980;-0.234;2022-07-01T05:03:15;100710.38;;;12.19;81.03
51315;BME280;58484;51.980;-0.234;2022-07-01T05:05:42;100708.69;;;12.11;81.37
51315;BME280;58484;51.980;-0.234;2022-07-01T05:08:07;100701.78;;;12.02;81.88
51315;BME280;58484;51.980;-0.234;2022-07-01T05:10:33;100691.56;;;11.91;82.47
51315;BME280;58484;51.980;-0.234;2022-07-01T05:12:59;100711.06;;;11.99;82.51
51315;BME280;58484;51.980;-0.234;2022-07-01T05:15:25;100705.69;;;11.99;82.34
51315;BME280;58484;51.980;-0.234;2022-07-01T05:17:51;100706.56;;;12.07;82.25
51315;BME280;58484;51.980;-0.234;2022-07-01T05:20:36;100717.78;;;12.10;82.34
51315;BME280;58484;51.980;-0.234;2022-07-01T05:23:22;100694.09;;;11.99;82.65
51315;BME280;58484;51.980;-0.234;2022-07-01T05:25:47;100710.31;;;12.06;82.81
51315;BME280;58484;51.980;-0.234;2022-07-01T05:28:13;100651.91;;;11.78;82.66
51315;BME280;58484;51.980;-0.234;2022-07-01T05:30:39;100691.91;;;12.09;82.15
51315;BME280;58484;51.980;-0.234;2022-07-01T05:33:05;100704.81;;;12.27;81.71
51315;BME280;58484;51.980;-0.234;2022-07-01T05:35:31;100713.34;;;12.31;81.95
51315;BME280;58484;51.980;-0.234;2022-07-01T05:37:57;100710.94;;;12.43;81.65
51315;BME280;58484;51.980;-0.234;2022-07-01T05:40:24;100695.84;;;12.55;79.90
51315;BME280;58484;51.980;-0.234;2022-07-01T05:42:51;100701.84;;;12.57;80.67
51315;BME280;58484;51.980;-0.234;2022-07-01T05:45:17;100692.91;;;12.50;80.85
51315;BME280;58484;51.980;-0.234;2022-07-01T05:47:44;100708.91;;;12.58;81.12
51315;BME280;58484;51.980;-0.234;2022-07-01T05:50:10;100707.09;;;12.65;79.70
51315;BME280;58484;51.980;-0.234;2022-07-01T05:52:35;100715.81;;;12.74;79.73
51315;BME280;58484;51.980;-0.234;2022-07-01T05:55:01;100712.47;;;12.72;81.10
51315;BME280;58484;51.980;-0.234;2022-07-01T05:57:27;100705.69;;;12.76;80.99
51315;BME280;58484;51.980;-0.234;2022-07-01T05:59:53;100704.03;;;12.88;80.23
51315;BME280;58484;51.980;-0.234;2022-07-01T06:02:18;100705.72;;;12.89;80.51
51315;BME280;58484;51.980;-0.234;2022-07-01T06:04:44;100710.91;;;12.91;81.04
51315;BME280;58484;51.980;-0.234;2022-07-01T06:07:10;100721.53;;;13.06;80.57
51315;BME280;58484;51.980;-0.234;2022-07-01T06:09:37;100710.34;;;13.22;79.04
51315;BME280;58484;51.980;-0.234;2022-07-01T06:12:04;100719.72;;;13.33;78.89
51315;BME280;58484;51.980;-0.234;2022-07-01T06:14:30;100724.31;;;13.39;78.37
51315;BME280;58484;51.980;-0.234;2022-07-01T06:16:56;100724.72;;;13.43;77.68
51315;BME280;58484;51.980;-0.234;2022-07-01T06:19:21;100724.31;;;13.46;77.57
51315;BME280;58484;51.980;-0.234;2022-07-01T06:21:47;100723.91;;;13.49;77.39
51315;BME280;58484;51.980;-0.234;2022-07-01T06:24:13;100723.69;;;13.50;77.92
51315;BME280;58484;51.980;-0.234;2022-07-01T06:26:39;100728.88;;;13.59;77.43
51315;BME280;58484;51.980;-0.234;2022-07-01T06:29:05;100722.88;;;13.57;77.23
51315;BME280;58484;51.980;-0.234;2022-07-01T06:31:31;100726.38;;;13.57;77.59
51315;BME280;58484;51.980;-0.234;2022-07-01T06:33:59;100728.06;;;13.58;76.44
51315;BME280;58484;51.980;-0.234;2022-07-01T06:36:25;100735.13;;;13.72;75.65
51315;BME280;58484;51.980;-0.234;2022-07-01T06:38:51;100730.34;;;13.74;75.16
51315;BME280;58484;51.980;-0.234;2022-07-01T06:41:17;100729.50;;;13.81;74.89
51315;BME280;58484;51.980;-0.234;2022-07-01T06:44:00;100727.22;;;13.78;74.44
51315;BME280;58484;51.980;-0.234;2022-07-01T06:46:27;100732.41;;;13.79;74.55
51315;BME280;58484;51.980;-0.234;2022-07-01T06:48:53;100717.47;;;13.70;74.37
51315;BME280;58484;51.980;-0.234;2022-07-01T06:51:20;100724.31;;;13.86;73.88
51315;BME280;58484;51.980;-0.234;2022-07-01T06:53:46;100716.22;;;13.86;73.76
51315;BME280;58484;51.980;-0.234;2022-07-01T06:56:13;100732.59;;;13.91;73.65
51315;BME280;58484;51.980;-0.234;2022-07-01T06:58:40;100733.25;;;13.86;74.01
51315;BME280;58484;51.980;-0.234;2022-07-01T07:01:06;100730.53;;;13.86;73.71
51315;BME280;58484;51.980;-0.234;2022-07-01T07:03:32;100744.44;;;14.03;73.81
51315;BME280;58484;51.980;-0.234;2022-07-01T07:05:59;100737.16;;;14.10;73.56
51315;BME280;58484;51.980;-0.234;2022-07-01T07:08:27;100743.97;;;14.33;72.78
51315;BME280;58484;51.980;-0.234;2022-07-01T07:10:52;100728.63;;;14.27;72.46
51315;BME280;58484;51.980;-0.234;2022-07-01T07:13:18;100724.84;;;14.28;72.00
51315;BME280;58484;51.980;-0.234;2022-07-01T07:15:44;100745.19;;;14.44;71.48
51315;BME280;58484;51.980;-0.234;2022-07-01T07:18:10;100748.25;;;14.54;70.65
51315;BME280;58484;51.980;-0.234;2022-07-01T07:20:36;100741.63;;;14.50;70.74
51315;BME280;58484;51.980;-0.234;2022-07-01T07:23:02;100745.16;;;14.64;70.35
51315;BME280;58484;51.980;-0.234;2022-07-01T07:25:28;100755.88;;;14.90;69.18
51315;BME280;58484;51.980;-0.234;2022-07-01T07:27:54;100751.66;;;15.01;68.66
51315;BME280;58484;51.980;-0.234;2022-07-01T07:30:20;100757.75;;;14.83;69.13
51315;BME280;58484;51.980;-0.234;2022-07-01T07:32:46;100759.84;;;14.81;69.85
51315;BME280;58484;51.980;-0.234;2022-07-01T07:35:12;100766.22;;;15.00;68.67
51315;BME280;58484;51.980;-0.234;2022-07-01T07:37:39;100762.75;;;14.86;68.38
51315;BME280;58484;51.980;-0.234;2022-07-01T07:40:06;100701.31;;;14.62;67.19
51315;BME280;58484;51.980;-0.234;2022-07-01T07:42:36;100755.41;;;15.00;67.24
51315;BME280;58484;51.980;-0.234;2022-07-01T07:45:02;100764.19;;;14.89;67.72
51315;BME280;58484;51.980;-0.234;2022-07-01T07:47:28;100755.53;;;14.74;67.89
51315;BME280;58484;51.980;-0.234;2022-07-01T07:49:54;100763.34;;;14.95;66.95
51315;BME280;58484;51.980;-0.234;2022-07-01T07:52:20;100762.22;;;15.09;66.58
51315;BME280;58484;51.980;-0.234;2022-07-01T07:54:45;100757.59;;;15.17;66.38
51315;BME280;58484;51.980;-0.234;2022-07-01T07:57:11;100760.28;;;15.23;65.74
51315;BME280;58484;51.980;-0.234;2022-07-01T07:59:37;100753.28;;;15.41;65.07
51315;BME280;58484;51.980;-0.234;2022-07-01T08:02:03;100764.91;;;15.48;65.61
51315;BME280;58484;51.980;-0.234;2022-07-01T08:04:28;100745.38;;;15.39;65.09
51315;BME280;58484;51.980;-0.234;2022-07-01T08:06:54;100757.88;;;15.40;65.58
51315;BME280;58484;51.980;-0.234;2022-07-01T08:09:20;100741.84;;;15.39;65.39
51315;BME280;58484;51.980;-0.234;2022-07-01T08:11:46;100738.84;;;15.54;64.38
